createdAt,value
2023-03-06T00:00:22.808Z,100810.0
2023-03-06T00:05:22.817Z,100800.0
2023-03-06T00:10:22.821Z,100800.0
2023-03-06T00:15:22.816Z,100800.0
2023-03-06T00:20:22.815Z,100790.0
2023-03-06T00:25:22.809Z,100790.0
2023-03-06T00:30:22.818Z,100790.0
2023-03-06T00:35:22.903Z,100780.0
2023-03-06T00:40:22.914Z,100780.0
2023-03-06T00:45:23.043Z,100780.0
2023-03-06T00:50:22.823Z,100760.0
2023-03-06T00:55:22.818Z,100770.0
2023-03-06T01:00:22.827Z,100760.0
2023-03-06T01:05:22.832Z,100750.0
2023-03-06T01:10:22.818Z,100740.0
2023-03-06T01:15:22.828Z,100750.0
2023-03-06T01:20:22.850Z,100750.0
2023-03-06T01:25:22.816Z,100750.0
2023-03-06T01:30:22.830Z,100740.0
2023-03-06T01:35:22.859Z,100740.0
2023-03-06T01:40:22.826Z,100740.0
2023-03-06T01:45:22.836Z,100730.0
2023-03-06T01:50:22.841Z,100730.0
2023-03-06T01:55:22.838Z,100720.0
2023-03-06T02:00:22.834Z,100710.0
2023-03-06T02:05:22.981Z,100700.0
2023-03-06T02:10:22.837Z,100710.0
2023-03-06T02:15:22.842Z,100690.0
2023-03-06T02:20:22.850Z,100690.0
2023-03-06T02:25:22.846Z,100670.0
2023-03-06T02:30:22.847Z,100670.0
2023-03-06T02:35:22.972Z,100670.0
2023-03-06T02:40:22.847Z,100670.0
2023-03-06T02:45:22.846Z,100670.0
2023-03-06T02:50:22.751Z,100670.0
2023-03-06T02:55:22.852Z,100680.0
2023-03-06T03:00:22.861Z,100670.0
2023-03-06T03:05:22.863Z,100660.0
2023-03-06T03:10:22.755Z,100660.0
2023-03-06T03:15:22.829Z,100650.0
2023-03-06T03:20:22.756Z,100650.0
2023-03-06T03:25:22.765Z,100640.0
2023-03-06T03:30:22.792Z,100640.0
2023-03-06T03:35:22.800Z,100620.0
2023-03-06T03:40:22.778Z,100620.0
2023-03-06T03:45:22.763Z,100610.0
2023-03-06T03:50:22.784Z,100610.0
2023-03-06T03:55:22.781Z,100590.0
2023-03-06T04:00:22.759Z,100600.0
2023-03-06T04:05:22.793Z,100590.0
2023-03-06T04:10:22.774Z,100590.0
2023-03-06T04:15:22.775Z,100590.0
2023-03-06T04:25:22.769Z,100580.0
2023-03-06T04:30:22.778Z,100580.0
2023-03-06T04:35:22.837Z,100560.0
2023-03-06T04:40:22.777Z,100570.0
2023-03-06T04:55:22.779Z,100570.0
2023-03-06T05:00:22.907Z,100560.0
2023-03-06T05:05:22.797Z,100560.0
2023-03-06T05:10:22.786Z,100560.0
2023-03-06T05:15:22.781Z,100560.0
2023-03-06T05:20:22.790Z,100550.0
2023-03-06T05:25:22.790Z,100540.0
2023-03-06T05:30:22.786Z,100550.0
2023-03-06T05:35:22.892Z,100540.0
2023-03-06T05:40:22.795Z,100550.0
2023-03-06T05:45:36.198Z,100530.0
2023-03-06T05:50:22.806Z,100520.0
2023-03-06T05:55:22.797Z,100510.0
2023-03-06T06:00:22.804Z,100510.0
2023-03-06T06:05:22.809Z,100510.0
2023-03-06T06:10:22.800Z,100520.0
2023-03-06T06:15:22.795Z,100520.0
2023-03-06T06:25:22.805Z,100520.0
2023-03-06T06:30:22.820Z,100520.0
2023-03-06T06:35:22.849Z,100520.0
2023-03-06T06:40:22.804Z,100520.0
2023-03-06T06:50:22.827Z,100510.0
2023-03-06T06:55:22.805Z,100520.0
2023-03-06T07:00:22.815Z,100520.0
2023-03-06T07:05:22.915Z,100520.0
2023-03-06T07:10:22.911Z,100530.0
2023-03-06T07:15:22.911Z,100540.0
2023-03-06T07:20:22.819Z,100540.0
2023-03-06T07:25:23.060Z,100550.0
2023-03-06T07:30:22.934Z,100540.0
2023-03-06T07:35:22.929Z,100540.0
2023-03-06T07:40:22.943Z,100530.0
2023-03-06T07:45:22.881Z,100540.0
2023-03-06T07:50:22.950Z,100540.0
2023-03-06T07:55:22.938Z,100530.0
2023-03-06T08:00:23.034Z,100540.0
2023-03-06T08:10:22.953Z,100540.0
2023-03-06T08:15:22.937Z,100550.0
2023-03-06T08:20:22.943Z,100540.0
2023-03-06T08:25:22.945Z,100540.0
2023-03-06T08:35:23.132Z,100550.0
2023-03-06T08:40:22.960Z,100540.0
2023-03-06T08:45:23.024Z,100540.0
2023-03-06T08:50:22.973Z,100550.0
2023-03-06T08:55:22.975Z,100550.0
2023-03-06T09:00:23.153Z,100540.0
2023-03-06T09:05:22.957Z,100530.0
2023-03-06T09:10:23.072Z,100520.0
2023-03-06T09:15:23.065Z,100520.0
2023-03-06T09:20:22.972Z,100520.0
2023-03-06T09:25:22.970Z,100530.0
2023-03-06T09:30:23.053Z,100530.0
2023-03-06T09:35:23.071Z,100530.0
2023-03-06T09:40:22.998Z,100540.0
2023-03-06T09:45:22.981Z,100540.0
2023-03-06T09:50:23.053Z,100530.0
2023-03-06T09:55:22.997Z,100530.0
2023-03-06T10:00:23.020Z,100530.0
2023-03-06T10:05:22.980Z,100530.0
2023-03-06T10:10:23.042Z,100530.0
2023-03-06T10:15:22.981Z,100530.0
2023-03-06T10:20:23.090Z,100530.0
2023-03-06T10:25:22.990Z,100530.0
2023-03-06T10:30:23.062Z,100540.0
2023-03-06T10:35:23.058Z,100530.0
2023-03-06T10:40:23.014Z,100530.0
2023-03-06T10:45:23.004Z,100520.0
2023-03-06T10:50:23.004Z,100530.0
2023-03-06T10:55:23.009Z,100530.0
2023-03-06T11:00:23.010Z,100530.0
2023-03-06T11:05:23.008Z,100530.0
2023-03-06T11:10:23.010Z,100540.0
2023-03-06T11:15:23.027Z,100530.0
2023-03-06T11:20:23.016Z,100520.0
2023-03-06T11:25:23.153Z,100510.0
2023-03-06T11:30:23.017Z,100510.0
2023-03-06T11:35:23.093Z,100510.0
2023-03-06T11:40:23.017Z,100510.0
2023-03-06T11:45:23.019Z,100510.0
2023-03-06T11:50:23.044Z,100500.0
2023-03-06T11:55:23.017Z,100500.0
2023-03-06T12:00:23.026Z,100490.0
2023-03-06T12:05:23.126Z,100500.0
2023-03-06T12:10:23.029Z,100470.0
2023-03-06T12:15:23.040Z,100480.0
2023-03-06T12:20:23.035Z,100470.0
2023-03-06T12:25:23.065Z,100460.0
2023-03-06T12:40:23.044Z,100450.0
2023-03-06T12:45:23.042Z,100450.0
2023-03-06T12:50:23.051Z,100430.0
2023-03-06T12:55:25.737Z,100430.0
2023-03-06T13:00:23.054Z,100430.0
2023-03-06T13:05:23.053Z,100420.0
2023-03-06T13:10:23.067Z,100420.0
2023-03-06T13:15:23.063Z,100420.0
2023-03-06T13:20:23.064Z,100410.0
2023-03-06T13:25:23.082Z,100410.0
2023-03-06T13:30:23.063Z,100400.0
2023-03-06T13:35:23.057Z,100400.0
2023-03-06T13:40:23.063Z,100400.0
2023-03-06T13:45:23.065Z,100390.0
2023-03-06T13:50:23.060Z,100400.0
2023-03-06T13:55:23.067Z,100380.0
2023-03-06T14:00:23.059Z,100380.0
2023-03-06T14:05:23.075Z,100380.0
2023-03-06T14:10:23.077Z,100380.0
2023-03-06T14:15:23.083Z,100370.0
2023-03-06T14:20:23.067Z,100360.0
2023-03-06T14:25:23.095Z,100370.0
2023-03-06T14:30:25.210Z,100360.0
2023-03-06T14:35:23.170Z,100350.0
2023-03-06T14:40:23.075Z,100350.0
2023-03-06T14:45:23.072Z,100340.0
2023-03-06T14:50:23.132Z,100350.0
2023-03-06T14:55:23.087Z,100340.0
2023-03-06T15:00:23.118Z,100320.0
2023-03-06T15:05:23.094Z,100320.0
2023-03-06T15:10:23.083Z,100320.0
2023-03-06T15:15:23.091Z,100310.0
2023-03-06T15:20:23.098Z,100310.0
2023-03-06T15:25:23.093Z,100310.0
2023-03-06T15:30:23.083Z,100300.0
2023-03-06T15:35:23.131Z,100290.0
2023-03-06T15:40:23.098Z,100290.0
2023-03-06T15:45:23.126Z,100300.0
2023-03-06T15:50:23.098Z,100290.0
2023-03-06T15:55:23.119Z,100310.0
2023-03-06T16:00:27.556Z,100280.0
2023-03-06T16:05:23.126Z,100270.0
2023-03-06T16:10:23.105Z,100260.0
2023-03-06T16:15:23.101Z,100260.0
2023-03-06T16:20:23.100Z,100250.0
2023-03-06T16:25:23.104Z,100250.0
2023-03-06T16:30:23.100Z,100240.0
2023-03-06T16:35:23.126Z,100240.0
2023-03-06T16:40:23.104Z,100230.0
2023-03-06T16:45:23.106Z,100230.0
2023-03-06T16:50:23.104Z,100230.0
2023-03-06T16:55:23.113Z,100230.0
2023-03-06T17:00:23.120Z,100230.0
2023-03-06T17:05:23.116Z,100230.0
2023-03-06T17:10:23.121Z,100220.0
2023-03-06T17:15:23.117Z,100220.0
2023-03-06T17:20:23.120Z,100210.0
2023-03-06T17:25:23.125Z,100190.0
2023-03-06T17:30:23.123Z,100190.0
2023-03-06T17:35:23.183Z,100190.0
2023-03-06T17:40:23.127Z,100190.0
2023-03-06T17:45:23.133Z,100190.0
2023-03-06T17:55:23.133Z,100190.0
2023-03-06T18:00:23.135Z,100190.0
2023-03-06T18:05:23.129Z,100190.0
2023-03-06T18:10:23.131Z,100190.0
2023-03-06T18:15:23.165Z,100190.0
2023-03-06T18:20:23.161Z,100180.0
2023-03-06T18:25:23.150Z,100170.0
2023-03-06T18:30:23.137Z,100160.0
2023-03-06T18:35:23.199Z,100160.0
2023-03-06T18:40:24.840Z,100150.0
2023-03-06T18:45:23.135Z,100150.0
2023-03-06T18:50:23.146Z,100140.0
2023-03-06T18:55:23.172Z,100130.0
2023-03-06T19:00:23.161Z,100120.0
2023-03-06T19:05:23.143Z,100120.0
2023-03-06T19:10:23.156Z,100110.0
2023-03-06T19:15:23.158Z,100100.0
2023-03-06T19:20:23.170Z,100090.0
2023-03-06T19:25:23.158Z,100080.0
2023-03-06T19:30:23.158Z,100080.0
2023-03-06T19:35:23.192Z,100070.0
2023-03-06T19:40:23.162Z,100070.0
2023-03-06T19:45:23.165Z,100070.0
2023-03-06T19:50:23.180Z,100060.0
2023-03-06T19:55:23.173Z,100060.0
2023-03-06T20:00:23.173Z,100050.0
2023-03-06T20:05:23.173Z,100040.0
2023-03-06T20:10:23.214Z,100030.0
2023-03-06T20:15:23.176Z,100020.0
2023-03-06T20:20:23.188Z,100020.0
2023-03-06T20:25:23.197Z,99990.0
2023-03-06T20:30:23.171Z,100000.0
2023-03-06T20:35:23.165Z,100000.0
2023-03-06T20:40:23.199Z,99990.0
2023-03-06T20:45:23.177Z,99980.0
2023-03-06T20:50:23.193Z,99970.0
2023-03-06T20:55:23.188Z,99960.0
2023-03-06T21:00:23.175Z,99950.0
2023-03-06T21:05:23.189Z,99950.0
2023-03-06T21:10:23.183Z,99930.0
2023-03-06T21:15:23.190Z,99940.0
2023-03-06T21:20:23.196Z,99920.0
2023-03-06T21:25:23.198Z,99930.0
2023-03-06T21:30:23.300Z,99910.0
2023-03-06T21:35:23.307Z,99900.0
2023-03-06T21:40:23.193Z,99890.0
2023-03-06T21:45:23.199Z,99890.0
2023-03-06T21:50:23.199Z,99890.0
2023-03-06T21:55:23.207Z,99880.0
2023-03-06T22:00:23.221Z,99880.0
2023-03-06T22:05:23.536Z,99870.0
2023-03-06T22:10:23.206Z,99870.0
2023-03-06T22:15:23.306Z,99860.0
2023-03-06T22:20:23.207Z,99860.0
2023-03-06T22:25:23.212Z,99840.0
2023-03-06T22:35:23.230Z,99830.0
2023-03-06T22:40:23.207Z,99820.0
2023-03-06T22:45:23.202Z,99810.0
2023-03-06T22:50:23.228Z,99810.0
2023-03-06T22:55:23.215Z,99810.0
2023-03-06T23:00:23.213Z,99810.0
2023-03-06T23:05:23.245Z,99820.0
2023-03-06T23:10:23.221Z,99820.0
2023-03-06T23:15:23.224Z,99820.0
2023-03-06T23:20:23.226Z,99820.0
2023-03-06T23:25:23.225Z,99820.0
2023-03-06T23:30:23.228Z,99830.0
2023-03-06T23:35:23.253Z,99820.0
2023-03-06T23:40:23.231Z,99810.0
2023-03-06T23:45:23.240Z,99820.0
2023-03-06T23:50:23.236Z,99810.0
2023-03-06T23:55:23.244Z,99810.0
